sensor_id;sensor_type;location;lat;lon;timestamp;pressure;altitude;pressure_sealevel;temperature;humidity
41044;BME280;51680;49.806;18.774;2022-09-03T00:01:39;97618.66;;;13.90;69.92
41044;BME280;51680;49.806;18.774;2022-09-03T00:04:52;97610.09;;;13.88;70.22
41044;BME280;51680;49.806;18.774;2022-09-03T00:08:01;97614.03;;;13.94;69.95
41044;BME280;51680;49.806;18.774;2022-09-03T00:11:10;97618.47;;;13.93;70.31
41044;BME280;51680;49.806;18.774;2022-09-03T00:14:18;97608.19;;;13.90;70.08
41044;BME280;51680;49.806;18.774;2022-09-03T00:17:24;97607.97;;;13.93;69.97
41044;BME280;51680;49.806;18.774;2022-09-03T00:20:30;97606.06;;;13.95;69.87
41044;BME280;51680;49.806;18.774;2022-09-03T00:23:35;97604.38;;;13.94;69.91
41044;BME280;51680;49.806;18.774;2022-09-03T00:26:41;97608.69;;;13.95;69.63
41044;BME280;51680;49.806;18.774;2022-09-03T00:29:47;97604.38;;;13.94;69.89
41044;BME280;51680;49.806;18.774;2022-09-03T00:32:55;97609.38;;;13.97;69.65
41044;BME280;51680;49.806;18.774;2022-09-03T00:36:07;97598.78;;;13.99;69.57
41044;BME280;51680;49.806;18.774;2022-09-03T00:39:14;97594.28;;;14.01;69.27
41044;BME280;51680;49.806;18.774;2022-09-03T00:42:37;97597.00;;;13.99;69.41
41044;BME280;51680;49.806;18.774;2022-09-03T00:45:52;97604.13;;;13.97;69.74
41044;BME280;51680;49.806;18.774;2022-09-03T00:49:16;97593.31;;;13.78;70.76
41044;BME280;51680;49.806;18.774;2022-09-03T00:52:34;97598.56;;;13.78;70.25
41044;BME280;51680;49.806;18.774;2022-09-03T00:55:46;97586.66;;;13.74;70.44
41044;BME280;51680;49.806;18.774;2022-09-03T00:59:02;97590.91;;;13.64;71.01
41044;BME280;51680;49.806;18.774;2022-09-03T01:02:12;97587.06;;;13.68;70.52
41044;BME280;51680;49.806;18.774;2022-09-03T01:05:28;97586.19;;;13.57;71.43
41044;BME280;51680;49.806;18.774;2022-09-03T01:08:52;97586.72;;;13.49;71.87
41044;BME280;51680;49.806;18.774;2022-09-03T01:12:04;97593.94;;;13.35;72.13
41044;BME280;51680;49.806;18.774;2022-09-03T01:15:16;97589.31;;;13.38;71.67
41044;BME280;51680;49.806;18.774;2022-09-03T01:18:24;97586.22;;;13.44;71.51
41044;BME280;51680;49.806;18.774;2022-09-03T01:21:44;97589.66;;;13.57;71.51
41044;BME280;51680;49.806;18.774;2022-09-03T01:25:05;97590.25;;;13.61;71.28
41044;BME280;51680;49.806;18.774;2022-09-03T01:28:43;97596.97;;;13.65;71.25
41044;BME280;51680;49.806;18.774;2022-09-03T01:31:57;97599.81;;;13.62;71.23
41044;BME280;51680;49.806;18.774;2022-09-03T01:35:07;97602.75;;;13.57;71.25
41044;BME280;51680;49.806;18.774;2022-09-03T01:38:16;97601.75;;;13.47;71.67
41044;BME280;51680;49.806;18.774;2022-09-03T01:41:28;97601.16;;;13.44;72.11
41044;BME280;51680;49.806;18.774;2022-09-03T01:45:23;97604.59;;;13.44;72.59
41044;BME280;51680;49.806;18.774;2022-09-03T01:48:42;97601.88;;;13.46;71.99
41044;BME280;51680;49.806;18.774;2022-09-03T01:51:45;97605.44;;;13.45;71.46
41044;BME280;51680;49.806;18.774;2022-09-03T01:54:52;97605.44;;;13.45;71.89
41044;BME280;51680;49.806;18.774;2022-09-03T01:58:06;97605.66;;;13.42;71.96
41044;BME280;51680;49.806;18.774;2022-09-03T02:01:16;97608.16;;;13.43;72.21
41044;BME280;51680;49.806;18.774;2022-09-03T02:04:23;97608.06;;;13.45;71.86
41044;BME280;51680;49.806;18.774;2022-09-03T02:07:29;97603.66;;;13.45;71.74
41044;BME280;51680;49.806;18.774;2022-09-03T02:10:39;97605.88;;;13.39;72.59
41044;BME280;51680;49.806;18.774;2022-09-03T02:13:44;97597.94;;;13.28;72.69
41044;BME280;51680;49.806;18.774;2022-09-03T02:16:49;97605.69;;;13.29;72.77
41044;BME280;51680;49.806;18.774;2022-09-03T02:19:51;97606.31;;;13.33;72.57
41044;BME280;51680;49.806;18.774;2022-09-03T02:22:53;97609.25;;;13.28;72.95
41044;BME280;51680;49.806;18.774;2022-09-03T02:25:57;97610.16;;;13.16;73.17
41044;BME280;51680;49.806;18.774;2022-09-03T02:29:01;97605.75;;;13.04;73.95
41044;BME280;51680;49.806;18.774;2022-09-03T02:32:05;97610.78;;;12.95;74.56
41044;BME280;51680;49.806;18.774;2022-09-03T02:35:08;97609.84;;;12.83;74.81
41044;BME280;51680;49.806;18.774;2022-09-03T02:38:11;97612.69;;;12.80;74.46
41044;BME280;51680;49.806;18.774;2022-09-03T02:41:13;97614.78;;;12.75;74.71
41044;BME280;51680;49.806;18.774;2022-09-03T02:44:19;97627.34;;;12.70;75.38
41044;BME280;51680;49.806;18.774;2022-09-03T02:47:30;97616.03;;;12.70;75.56
41044;BME280;51680;49.806;18.774;2022-09-03T02:50:39;97614.16;;;12.72;75.83
41044;BME280;51680;49.806;18.774;2022-09-03T02:53:41;97602.63;;;12.74;75.12
41044;BME280;51680;49.806;18.774;2022-09-03T02:56:43;97606.47;;;12.81;74.77
41044;BME280;51680;49.806;18.774;2022-09-03T02:59:48;97604.47;;;12.85;74.70
41044;BME280;51680;49.806;18.774;2022-09-03T03:02:51;97611.63;;;12.83;75.08
41044;BME280;51680;49.806;18.774;2022-09-03T03:05:54;97613.19;;;12.85;74.89
41044;BME280;51680;49.806;18.774;2022-09-03T03:08:57;97607.44;;;12.80;74.76
41044;BME280;51680;49.806;18.774;2022-09-03T03:12:00;97610.25;;;12.77;74.93
41044;BME280;51680;49.806;18.774;2022-09-03T03:15:02;97608.81;;;12.73;75.30
41044;BME280;51680;49.806;18.774;2022-09-03T03:18:06;97614.25;;;12.70;75.92
41044;BME280;51680;49.806;18.774;2022-09-03T03:21:13;97609.13;;;12.56;76.88
41044;BME280;51680;49.806;18.774;2022-09-03T03:24:14;97607.75;;;12.51;76.33
41044;BME280;51680;49.806;18.774;2022-09-03T03:27:16;97606.84;;;12.52;76.48
41044;BME280;51680;49.806;18.774;2022-09-03T03:30:18;97608.28;;;12.43;77.34
41044;BME280;51680;49.806;18.774;2022-09-03T03:33:21;97606.69;;;12.28;78.26
41044;BME280;51680;49.806;18.774;2022-09-03T03:36:25;97598.22;;;12.37;77.49
41044;BME280;51680;49.806;18.774;2022-09-03T03:39:27;97606.16;;;12.11;79.42
41044;BME280;51680;49.806;18.774;2022-09-03T03:42:31;97605.69;;;11.92;80.43
41044;BME280;51680;49.806;18.774;2022-09-03T03:45:33;97606.44;;;11.67;81.85
41044;BME280;51680;49.806;18.774;2022-09-03T03:48:37;97605.53;;;11.54;82.09
41044;BME280;51680;49.806;18.774;2022-09-03T03:51:40;97607.25;;;11.41;83.26
41044;BME280;51680;49.806;18.774;2022-09-03T03:54:42;97614.47;;;11.38;82.70
41044;BME280;51680;49.806;18.774;2022-09-03T03:57:44;97614.47;;;11.38;83.10
41044;BME280;51680;49.806;18.774;2022-09-03T04:00:46;97622.41;;;11.36;83.57
41044;BME280;51680;49.806;18.774;2022-09-03T04:03:51;97612.72;;;11.51;82.07
41044;BME280;51680;49.806;18.774;2022-09-03T04:06:55;97619.63;;;11.66;81.53
41044;BME280;51680;49.806;18.774;2022-09-03T04:09:57;97629.88;;;11.69;81.93
41044;BME280;51680;49.806;18.774;2022-09-03T04:12:58;97626.13;;;11.73;81.21
41044;BME280;51680;49.806;18.774;2022-09-03T04:16:02;97625.44;;;11.83;81.40
41044;BME280;51680;49.806;18.774;2022-09-03T04:19:06;97623.47;;;11.87;82.23
41044;BME280;51680;49.806;18.774;2022-09-03T04:22:07;97634.38;;;11.93;81.78
41044;BME280;51680;49.806;18.774;2022-09-03T04:25:09;97642.53;;;12.01;81.55
41044;BME280;51680;49.806;18.774;2022-09-03T04:28:11;97636.50;;;12.13;81.15
41044;BME280;51680;49.806;18.774;2022-09-03T04:31:16;97641.66;;;12.27;80.82
41044;BME280;51680;49.806;18.774;2022-09-03T04:34:19;97636.34;;;12.66;79.23
41044;BME280;51680;49.806;18.774;2022-09-03T04:37:21;97634.06;;;12.74;78.73
41044;BME280;51680;49.806;18.774;2022-09-03T04:40:23;97634.88;;;12.62;79.45
41044;BME280;51680;49.806;18.774;2022-09-03T04:43:25;97637.94;;;12.56;79.45
41044;BME280;51680;49.806;18.774;2022-09-03T04:46:28;97637.41;;;12.51;79.68
41044;BME280;51680;49.806;18.774;2022-09-03T04:49:34;97640.97;;;12.75;78.38
41044;BME280;51680;49.806;18.774;2022-09-03T04:52:35;97639.56;;;13.32;76.87
41044;BME280;51680;49.806;18.774;2022-09-03T04:55:56;97634.53;;;14.12;74.49
41044;BME280;51680;49.806;18.774;2022-09-03T04:58:59;97637.97;;;14.36;73.53
41044;BME280;51680;49.806;18.774;2022-09-03T05:02:01;97635.16;;;14.61;72.39
41044;BME280;51680;49.806;18.774;2022-09-03T05:05:05;97625.16;;;14.88;71.38
41044;BME280;51680;49.806;18.774;2022-09-03T05:08:07;97631.16;;;15.23;70.55
41044;BME280;51680;49.806;18.774;2022-09-03T05:11:09;97620.84;;;15.53;69.30
41044;BME280;51680;49.806;18.774;2022-09-03T05:14:11;97614.00;;;16.04;68.15
41044;BME280;51680;49.806;18.774;2022-09-03T05:17:12;97620.50;;;16.52;66.05
41044;BME280;51680;49.806;18.774;2022-09-03T05:20:16;97619.78;;;17.01;64.44
41044;BME280;51680;49.806;18.774;2022-09-03T05:23:17;97620.91;;;17.38;63.62
41044;BME280;51680;49.806;18.774;2022-09-03T05:26:22;97629.09;;;17.74;61.55
41044;BME280;51680;49.806;18.774;2022-09-03T05:29:24;97622.28;;;17.72;61.85
41044;BME280;51680;49.806;18.774;2022-09-03T05:32:29;97618.69;;;17.82;61.45
41044;BME280;51680;49.806;18.774;2022-09-03T05:35:32;97626.09;;;17.98;61.15
41044;BME280;51680;49.806;18.774;2022-09-03T05:38:34;97622.91;;;18.33;60.25
41044;BME280;51680;49.806;18.774;2022-09-03T05:41:36;97621.94;;;18.53;60.14
41044;BME280;51680;49.806;18.774;2022-09-03T05:44:37;97630.13;;;19.24;58.67
41044;BME280;51680;49.806;18.774;2022-09-03T05:47:39;97619.88;;;19.66;57.21
41044;BME280;51680;49.806;18.774;2022-09-03T05:50:42;97621.28;;;20.05;56.04
41044;BME280;51680;49.806;18.774;2022-09-03T05:53:46;97620.84;;;19.92;56.47
41044;BME280;51680;49.806;18.774;2022-09-03T05:56:48;97622.25;;;20.31;55.81
41044;BME280;51680;49.806;18.774;2022-09-03T05:59:50;97615.97;;;20.75;54.84
41044;BME280;51680;49.806;18.774;2022-09-03T06:02:52;97612.53;;;20.82;54.20
41044;BME280;51680;49.806;18.774;2022-09-03T06:05:55;97610.63;;;21.59;53.78
41044;BME280;51680;49.806;18.774;2022-09-03T06:08:58;97610.31;;;22.04;51.91
41044;BME280;51680;49.806;18.774;2022-09-03T06:12:02;97597.38;;;22.73;50.89
41044;BME280;51680;49.806;18.774;2022-09-03T06:15:04;97617.66;;;22.42;50.76
41044;BME280;51680;49.806;18.774;2022-09-03T06:18:06;97617.25;;;21.97;51.83
41044;BME280;51680;49.806;18.774;2022-09-03T06:21:09;97608.50;;;21.63;52.27
41044;BME280;51680;49.806;18.774;2022-09-03T06:24:12;97609.69;;;21.27;52.94
41044;BME280;51680;49.806;18.774;2022-09-03T06:27:14;97616.22;;;21.82;52.63
41044;BME280;51680;49.806;18.774;2022-09-03T06:30:16;97613.88;;;22.52;51.21
41044;BME280;51680;49.806;18.774;2022-09-03T06:33:19;97629.69;;;22.46;50.89
41044;BME280;51680;49.806;18.774;2022-09-03T06:36:25;97630.16;;;21.76;52.31
41044;BME280;51680;49.806;18.774;2022-09-03T06:39:28;97637.53;;;21.56;52.86
41044;BME280;51680;49.806;18.774;2022-09-03T06:42:30;97634.53;;;21.18;54.24
41044;BME280;51680;49.806;18.774;2022-09-03T06:45:32;97636.66;;;21.48;53.10
41044;BME280;51680;49.806;18.774;2022-09-03T06:48:34;97642.13;;;21.72;53.37
41044;BME280;51680;49.806;18.774;2022-09-03T06:51:41;97633.53;;;21.86;52.09
41044;BME280;51680;49.806;18.774;2022-09-03T06:54:43;97627.53;;;22.57;51.53
41044;BME280;51680;49.806;18.774;2022-09-03T06:57:45;97623.66;;;23.08;51.29
41044;BME280;51680;49.806;18.774;2022-09-03T07:00:47;97622.97;;;23.22;50.64
41044;BME280;51680;49.806;18.774;2022-09-03T07:03:52;97624.19;;;23.88;48.50
41044;BME280;51680;49.806;18.774;2022-09-03T07:06:57;97610.75;;;24.57;47.66
41044;BME280;51680;49.806;18.774;2022-09-03T07:09:59;97609.97;;;24.49;47.36
41044;BME280;51680;49.806;18.774;2022-09-03T07:13:01;97608.47;;;24.32;48.16
41044;BME280;51680;49.806;18.774;2022-09-03T07:16:04;97621.81;;;23.24;48.84
41044;BME280;51680;49.806;18.774;2022-09-03T07:19:06;97629.91;;;21.95;51.16
41044;BME280;51680;49.806;18.774;2022-09-03T07:22:10;97627.59;;;22.08;52.75
41044;BME280;51680;49.806;18.774;2022-09-03T07:25:11;97629.50;;;22.71;51.46
41044;BME280;51680;49.806;18.774;2022-09-03T07:28:13;97618.31;;;23.24;49.89
41044;BME280;51680;49.806;18.774;2022-09-03T07:31:18;97615.94;;;23.37;49.56
41044;BME280;51680;49.806;18.774;2022-09-03T07:34:24;97611.63;;;23.28;49.97
41044;BME280;51680;49.806;18.774;2022-09-03T07:37:27;97617.84;;;23.59;49.29
41044;BME280;51680;49.806;18.774;2022-09-03T07:40:29;97630.88;;;23.84;49.27
41044;BME280;51680;49.806;18.774;2022-09-03T07:43:34;97621.28;;;24.06;48.56
41044;BME280;51680;49.806;18.774;2022-09-03T07:46:37;97613.84;;;24.01;48.32
41044;BME280;51680;49.806;18.774;2022-09-03T07:49:39;97621.69;;;23.95;47.88
41044;BME280;51680;49.806;18.774;2022-09-03T07:52:42;97629.03;;;23.93;48.07
41044;BME280;51680;49.806;18.774;2022-09-03T07:55:44;97629.72;;;23.95;47.78
41044;BME280;51680;49.806;18.774;2022-09-03T07:58:46;97632.94;;;24.13;48.36
41044;BME280;51680;49.806;18.774;2022-09-03T08:01:48;97628.50;;;24.50;48.01
41044;BME280;51680;49.806;18.774;2022-09-03T08:04:52;97623.81;;;24.52;47.93
41044;BME280;51680;49.806;18.774;2022-09-03T08:07:55;97621.22;;;24.67;47.25
41044;BME280;51680;49.806;18.774;2022-09-03T08:11:03;97622.16;;;24.74;46.94
41044;BME280;51680;49.806;18.774;2022-09-03T08:14:06;97606.00;;;24.45;47.20
41044;BME280;51680;49.806;18.774;2022-09-03T08:17:08;97612.25;;;24.60;47.33
41044;BME280;51680;49.806;18.774;2022-09-03T08:20:12;97619.56;;;24.66;46.95
41044;BME280;51680;49.806;18.774;2022-09-03T08:23:15;97627.94;;;23.25;49.26
41044;BME280;51680;49.806;18.774;2022-09-03T08:26:18;97632.28;;;23.10;50.62
41044;BME280;51680;49.806;18.774;2022-09-03T08:29:20;97624.91;;;23.44;50.23
41044;BME280;51680;49.806;18.774;2022-09-03T08:32:22;97620.88;;;23.56;49.61
41044;BME280;51680;49.806;18.774;2022-09-03T08:35:24;97624.97;;;23.66;49.41
41044;BME280;51680;49.806;18.774;2022-09-03T08:38:27;97628.19;;;23.54;49.28
41044;BME280;51680;49.806;18.774;2022-09-03T08:41:42;97627.44;;;23.76;48.57
41044;BME280;51680;49.806;18.774;2022-09-03T08:44:49;97633.94;;;23.73;48.90
41044;BME280;51680;49.806;18.774;2022-09-03T08:47:59;97626.41;;;23.85;48.06
41044;BME280;51680;49.806;18.774;2022-09-03T08:51:04;97624.53;;;23.93;48.38
41044;BME280;51680;49.806;18.774;2022-09-03T08:54:10;97630.31;;;24.05;47.74
41044;BME280;51680;49.806;18.774;2022-09-03T08:57:15;97631.34;;;24.49;47.39
41044;BME280;51680;49.806;18.774;2022-09-03T09:00:19;97634.44;;;23.14;49.54
41044;BME280;51680;49.806;18.774;2022-09-03T09:03:33;97619.81;;;22.94;50.19
41044;BME280;51680;49.806;18.774;2022-09-03T09:06:42;97631.47;;;22.29;51.99
41044;BME280;51680;49.806;18.774;2022-09-03T09:09:52;97630.88;;;21.19;53.72
41044;BME280;51680;49.806;18.774;2022-09-03T09:13:04;97636.72;;;20.97;57.06
41044;BME280;51680;49.806;18.774;2022-09-03T09:16:13;97626.09;;;21.56;54.57
41044;BME280;51680;49.806;18.774;2022-09-03T09:19:30;97638.56;;;22.05;52.48
41044;BME280;51680;49.806;18.774;2022-09-03T09:22:39;97626.25;;;22.04;52.70
41044;BME280;51680;49.806;18.774;2022-09-03T09:25:47;97628.78;;;22.21;52.41
41044;BME280;51680;49.806;18.774;2022-09-03T09:28:52;97628.94;;;22.20;53.82
41044;BME280;51680;49.806;18.774;2022-09-03T09:31:56;97628.19;;;22.67;53.50
41044;BME280;51680;49.806;18.774;2022-09-03T09:34:58;97639.66;;;22.68;53.37
41044;BME280;51680;49.806;18.774;2022-09-03T09:38:00;97642.31;;;22.76;52.14
41044;BME280;51680;49.806;18.774;2022-09-03T09:41:11;97626.16;;;23.01;51.14
41044;BME280;51680;49.806;18.774;2022-09-03T09:44:18;97632.16;;;22.95;52.15
41044;BME280;51680;49.806;18.774;2022-09-03T09:47:23;97631.63;;;23.08;52.41
41044;BME280;51680;49.806;18.774;2022-09-03T09:50:26;97636.41;;;22.00;54.05
41044;BME280;51680;49.806;18.774;2022-09-03T09:53:27;97642.63;;;22.49;53.34
41044;BME280;51680;49.806;18.774;2022-09-03T09:56:31;97643.66;;;22.56;53.05
41044;BME280;51680;49.806;18.774;2022-09-03T09:59:33;97646.91;;;22.18;53.97
41044;BME280;51680;49.806;18.774;2022-09-03T10:02:38;97649.63;;;21.76;55.20
41044;BME280;51680;49.806;18.774;2022-09-03T10:05:42;97643.72;;;22.06;55.74
41044;BME280;51680;49.806;18.774;2022-09-03T10:08:44;97630.63;;;22.37;54.71
41044;BME280;51680;49.806;18.774;2022-09-03T10:11:49;97634.00;;;22.71;52.91
41044;BME280;51680;49.806;18.774;2022-09-03T10:14:57;97641.94;;;23.11;53.29
41044;BME280;51680;49.806;18.774;2022-09-03T10:18:10;97636.94;;;23.24;51.27
41044;BME280;51680;49.806;18.774;2022-09-03T10:21:18;97646.13;;;22.97;52.18
41044;BME280;51680;49.806;18.774;2022-09-03T10:24:33;97642.28;;;23.24;52.51
41044;BME280;51680;49.806;18.774;2022-09-03T10:27:41;97634.91;;;23.42;51.31
41044;BME280;51680;49.806;18.774;2022-09-03T10:31:02;97629.84;;;23.55;51.82
41044;BME280;51680;49.806;18.774;2022-09-03T10:34:13;97623.94;;;23.29;51.98
41044;BME280;51680;49.806;18.774;2022-09-03T10:37:21;97616.78;;;23.68;50.59
41044;BME280;51680;49.806;18.774;2022-09-03T10:40:30;97613.22;;;23.45;51.17
41044;BME280;51680;49.806;18.774;2022-09-03T10:43:56;97627.31;;;22.99;52.63
41044;BME280;51680;49.806;18.774;2022-09-03T10:47:14;97618.84;;;22.87;52.16
41044;BME280;51680;49.806;18.774;2022-09-03T10:50:22;97615.84;;;22.82;53.08
41044;BME280;51680;49.806;18.774;2022-09-03T10:53:39;97612.38;;;22.74;53.09
41044;BME280;51680;49.806;18.774;2022-09-03T10:56:52;97621.16;;;22.98;52.83
41044;BME280;51680;49.806;18.774;2022-09-03T11:00:06;97611.66;;;22.96;51.75
41044;BME280;51680;49.806;18.774;2022-09-03T11:03:24;97608.50;;;23.00;52.63
41044;BME280;51680;49.806;18.774;2022-09-03T11:06:28;97601.13;;;23.26;52.73
41044;BME280;51680;49.806;18.774;2022-09-03T11:09:35;97600.75;;;23.45;51.92
41044;BME280;51680;49.806;18.774;2022-09-03T11:12:42;97605.84;;;23.00;52.54
41044;BME280;51680;49.806;18.774;2022-09-03T11:15:50;97604.19;;;22.91;52.71
41044;BME280;51680;49.806;18.774;2022-09-03T11:18:54;97603.66;;;23.04;52.45
41044;BME280;51680;49.806;18.774;2022-09-03T11:21:58;97611.19;;;22.92;54.29
41044;BME280;51680;49.806;18.774;2022-09-03T11:25:01;97608.25;;;21.82;55.49
41044;BME280;51680;49.806;18.774;2022-09-03T11:28:14;97598.41;;;21.33;57.01
41044;BME280;51680;49.806;18.774;2022-09-03T11:31:24;97595.09;;;21.39;57.64
41044;BME280;51680;49.806;18.774;2022-09-03T11:34:44;97595.53;;;21.68;56.61
41044;BME280;51680;49.806;18.774;2022-09-03T11:37:52;97593.00;;;21.84;57.92
41044;BME280;51680;49.806;18.774;2022-09-03T11:41:00;97591.00;;;21.94;55.59
41044;BME280;51680;49.806;18.774;2022-09-03T11:44:15;97584.53;;;22.12;55.52
41044;BME280;51680;49.806;18.774;2022-09-03T11:47:24;97590.09;;;22.51;55.97
41044;BME280;51680;49.806;18.774;2022-09-03T11:50:37;97585.41;;;22.69;55.17
41044;BME280;51680;49.806;18.774;2022-09-03T11:53:39;97592.88;;;22.09;56.48
41044;BME280;51680;49.806;18.774;2022-09-03T11:56:41;97593.03;;;22.40;56.68
41044;BME280;51680;49.806;18.774;2022-09-03T11:59:43;97587.91;;;22.46;54.91
41044;BME280;51680;49.806;18.774;2022-09-03T12:02:48;97581.25;;;22.66;55.07
41044;BME280;51680;49.806;18.774;2022-09-03T12:06:05;97597.53;;;22.87;54.98
41044;BME280;51680;49.806;18.774;2022-09-03T12:09:30;97590.69;;;23.09;54.13
41044;BME280;51680;49.806;18.774;2022-09-03T12:12:44;97591.38;;;23.03;52.89
41044;BME280;51680;49.806;18.774;2022-09-03T12:16:13;97597.66;;;23.18;53.59
41044;BME280;51680;49.806;18.774;2022-09-03T12:19:27;97591.34;;;23.19;54.04
41044;BME280;51680;49.806;18.774;2022-09-03T12:22:35;97589.69;;;23.02;53.75
41044;BME280;51680;49.806;18.774;2022-09-03T12:25:42;97582.31;;;23.12;53.70
41044;BME280;51680;49.806;18.774;2022-09-03T12:28:47;97570.00;;;23.27;54.20
41044;BME280;51680;49.806;18.774;2022-09-03T12:31:49;97580.00;;;23.25;53.79
41044;BME280;51680;49.806;18.774;2022-09-03T12:34:53;97574.50;;;23.26;54.00
41044;BME280;51680;49.806;18.774;2022-09-03T12:37:55;97569.63;;;23.30;53.84
41044;BME280;51680;49.806;18.774;2022-09-03T12:40:57;97559.88;;;23.53;53.92
41044;BME280;51680;49.806;18.774;2022-09-03T12:43:59;97570.75;;;23.74;54.24
41044;BME280;51680;49.806;18.774;2022-09-03T12:47:06;97563.44;;;23.76;52.11
41044;BME280;51680;49.806;18.774;2022-09-03T12:50:13;97566.50;;;23.65;53.31
41044;BME280;51680;49.806;18.774;2022-09-03T12:53:20;97569.47;;;23.70;52.55
41044;BME280;51680;49.806;18.774;2022-09-03T12:56:24;97572.06;;;23.47;53.45
41044;BME280;51680;49.806;18.774;2022-09-03T12:59:32;97567.66;;;23.16;53.28
41044;BME280;51680;49.806;18.774;2022-09-03T13:02:39;97563.50;;;23.29;54.73
41044;BME280;51680;49.806;18.774;2022-09-03T13:05:50;97567.25;;;23.43;54.03
41044;BME280;51680;49.806;18.774;2022-09-03T13:08:55;97565.94;;;23.39;53.78
41044;BME280;51680;49.806;18.774;2022-09-03T13:11:58;97554.81;;;23.35;54.15
41044;BME280;51680;49.806;18.774;2022-09-03T13:15:06;97552.78;;;23.37;54.71
41044;BME280;51680;49.806;18.774;2022-09-03T13:18:16;97562.00;;;23.27;53.90
41044;BME280;51680;49.806;18.774;2022-09-03T13:21:31;97567.50;;;23.25;54.15
41044;BME280;51680;49.806;18.774;2022-09-03T13:24:58;97564.00;;;23.25;53.60
41044;BME280;51680;49.806;18.774;2022-09-03T13:28:10;97560.69;;;23.23;54.46
41044;BME280;51680;49.806;18.774;2022-09-03T13:31:26;97553.00;;;23.12;54.06
41044;BME280;51680;49.806;18.774;2022-09-03T13:34:32;97562.03;;;23.11;55.09
41044;BME280;51680;49.806;18.774;2022-09-03T13:37:39;97556.22;;;23.07;54.47
41044;BME280;51680;49.806;18.774;2022-09-03T13:40:46;97558.19;;;23.21;55.48
41044;BME280;51680;49.806;18.774;2022-09-03T13:43:53;97571.00;;;23.10;54.44
41044;BME280;51680;49.806;18.774;2022-09-03T13:47:00;97562.13;;;22.79;55.15
41044;BME280;51680;49.806;18.774;2022-09-03T13:50:09;97568.78;;;22.75;55.38
41044;BME280;51680;49.806;18.774;2022-09-03T13:53:31;97567.94;;;22.66;56.27
41044;BME280;51680;49.806;18.774;2022-09-03T13:56:48;97564.78;;;22.63;56.39
41044;BME280;51680;49.806;18.774;2022-09-03T13:59:55;97565.28;;;22.74;56.23
41044;BME280;51680;49.806;18.774;2022-09-03T14:03:07;97556.09;;;22.85;55.85
41044;BME280;51680;49.806;18.774;2022-09-03T14:06:24;97558.41;;;22.96;55.77
41044;BME280;51680;49.806;18.774;2022-09-03T14:09:37;97562.06;;;23.03;55.37
41044;BME280;51680;49.806;18.774;2022-09-03T14:12:45;97569.69;;;23.06;55.60
41044;BME280;51680;49.806;18.774;2022-09-03T14:15:55;97559.88;;;23.06;55.14
41044;BME280;51680;49.806;18.774;2022-09-03T14:19:03;97550.03;;;23.15;54.98
41044;BME280;51680;49.806;18.774;2022-09-03T14:22:12;97548.06;;;23.09;55.61
41044;BME280;51680;49.806;18.774;2022-09-03T14:25:18;97550.41;;;22.96;55.58
41044;BME280;51680;49.806;18.774;2022-09-03T14:28:28;97553.22;;;23.02;56.80
41044;BME280;51680;49.806;18.774;2022-09-03T14:31:49;97558.25;;;22.97;56.92
41044;BME280;51680;49.806;18.774;2022-09-03T14:35:22;97563.28;;;22.36;56.43
41044;BME280;51680;49.806;18.774;2022-09-03T14:38:44;97556.81;;;22.07;58.05
41044;BME280;51680;49.806;18.774;2022-09-03T14:42:35;97556.13;;;22.13;58.13
41044;BME280;51680;49.806;18.774;2022-09-03T14:46:00;97542.50;;;22.32;57.08
41044;BME280;51680;49.806;18.774;2022-09-03T14:49:14;97544.31;;;22.23;57.16
41044;BME280;51680;49.806;18.774;2022-09-03T14:52:30;97538.84;;;22.33;57.20
41044;BME280;51680;49.806;18.774;2022-09-03T14:55:56;97539.50;;;22.35;57.69
41044;BME280;51680;49.806;18.774;2022-09-03T14:59:29;97533.84;;;22.38;57.05
41044;BME280;51680;49.806;18.774;2022-09-03T15:02:55;97531.34;;;22.44;56.96
41044;BME280;51680;49.806;18.774;2022-09-03T15:06:13;97531.69;;;22.41;57.59
41044;BME280;51680;49.806;18.774;2022-09-03T15:09:37;97528.53;;;22.14;59.04
41044;BME280;51680;49.806;18.774;2022-09-03T15:12:43;97528.53;;;22.14;58.56
41044;BME280;51680;49.806;18.774;2022-09-03T15:16:05;97530.53;;;22.12;58.01
41044;BME280;51680;49.806;18.774;2022-09-03T15:19:15;97532.69;;;22.00;58.22
41044;BME280;51680;49.806;18.774;2022-09-03T15:22:29;97537.34;;;22.06;58.22
41044;BME280;51680;49.806;18.774;2022-09-03T15:25:47;97526.72;;;22.06;58.59
41044;BME280;51680;49.806;18.774;2022-09-03T15:29:07;97531.53;;;22.03;59.48
41044;BME280;51680;49.806;18.774;2022-09-03T15:32:20;97541.16;;;21.88;59.13
41044;BME280;51680;49.806;18.774;2022-09-03T15:35:37;97536.81;;;21.79;60.08
41044;BME280;51680;49.806;18.774;2022-09-03T15:38:47;97537.78;;;21.78;59.75
41044;BME280;51680;49.806;18.774;2022-09-03T15:41:53;97529.41;;;21.57;60.18
41044;BME280;51680;49.806;18.774;2022-09-03T15:45:03;97527.72;;;21.48;61.13
41044;BME280;51680;49.806;18.774;2022-09-03T15:48:18;97538.34;;;21.48;60.95
41044;BME280;51680;49.806;18.774;2022-09-03T15:51:25;97528.41;;;21.50;60.60
41044;BME280;51680;49.806;18.774;2022-09-03T15:54:35;97537.84;;;21.44;60.54
41044;BME280;51680;49.806;18.774;2022-09-03T15:57:48;97530.69;;;21.37;61.13
41044;BME280;51680;49.806;18.774;2022-09-03T16:00:56;97542.31;;;21.36;60.65
41044;BME280;51680;49.806;18.774;2022-09-03T16:04:24;97544.28;;;21.34;61.05
41044;BME280;51680;49.806;18.774;2022-09-03T16:07:40;97543.09;;;21.20;60.91
41044;BME280;51680;49.806;18.774;2022-09-03T16:10:55;97550.34;;;21.10;61.51
41044;BME280;51680;49.806;18.774;2022-09-03T16:14:03;97542.66;;;20.99;61.44
41044;BME280;51680;49.806;18.774;2022-09-03T16:17:17;97538.16;;;21.00;61.65
41044;BME280;51680;49.806;18.774;2022-09-03T16:20:26;97539.69;;;21.02;61.49
41044;BME280;51680;49.806;18.774;2022-09-03T16:23:37;97548.44;;;20.95;61.77